METAR Data
IDs: Format: Raw Decoded Include TAF

Data at: 1143 UTC 21 Jan 2020

Region: TOP
KATL 211052Z 33007KT 10SM BKN047 M04/M09 A3036 RMK AO2 SLP290 T10391094

KBOS 211054Z 33008KT 10SM FEW250 M07/M17 A3037 RMK AO2 SLP284 T10721172 $

KBWI 211054Z 30003KT 10SM CLR M07/M14 A3049 RMK AO2 SLP324 T10671139

KCLE 211051Z 27004KT 9SM -SN OVC029 M05/M11 A3057 RMK AO2 SLP363 P0000 T10501106 $

KCLT 211052Z 01007KT 10SM CLR M04/M11 A3042 RMK AO2 SLP307 T10391111

KCVG 211052Z 02009KT 10SM OVC029 M06/M12 A3058 RMK AO2 SNE00 SLP365 P0000 T10561122 $

KDCA 211052Z 34009KT 10SM CLR M04/M12 A3051 RMK AO2 SLP330 T10441122

KDEN 211053Z COR 35003KT 10SM FEW110 SCT130 BKN220 M01/M10 A3003 RMK AO2 SLP163 T10061100

KDFW 211053Z 22003KT 10SM BKN300 01/M02 A3044 RMK AO2 SLP307 T00111017 $

KDTW 211053Z 28008KT 10SM OVC028 M06/M12 A3057 RMK AO2 SNE21 SLP362 P0000 T10611117 $

KEWR 211051Z 33005KT 10SM CLR M06/M13 A3043 RMK AO2 SLP303 T10611128

KFLL 211053Z 32006KT 10SM CLR 11/09 A3009 RMK AO2 SLP187 T01110094

KIAD 211052Z 33007KT 10SM CLR M06/M13 A3049 RMK AO2 SLP329 T10611128

KIAH 211053Z 00000KT 10SM FEW250 03/M01 A3049 RMK AO2 SLP325 T00331006

KJFK 211051Z 34005KT 10SM CLR M07/M13 A3043 RMK AO2 SLP305 T10721128 $

KLAS 211056Z 20003KT 10SM OVC100 11/M03 A3002 RMK AO2 SLP159 SHRA DSNT NW T01111028

KLAX 211053Z 30006KT 10SM -RA FEW010 SCT014 BKN028 OVC200 14/12 A3011 RMK AO2 RAE00B24 SLP195 P0002 T01440117

KLGA 211051Z 33008KT 10SM CLR M06/M13 A3042 RMK AO2 SLP299 T10611128

KMCO 211053Z 34009KT 10SM CLR 07/03 A3017 RMK AO2 SLP217 T00720028

KMDW 211053Z 27003KT 10SM CLR M08/M11 A3061 RMK AO2 SLP383 T10781106 $

KMEM 211054Z 06011KT 10SM OVC025 M03/M09 A3061 RMK AO2 SLP367 T10281089

KMIA 211053Z 33008KT 10SM FEW015 FEW250 13/09 A3010 RMK AO2 SLP192 T01280094

KMSP 211053Z 20003KT 10SM CLR M17/M20 A3048 RMK AO2 SLP341 T11721200

KORD 211051Z 26006KT 10SM CLR M09/M11 A3060 RMK AO2 SLP372 T10891111 $

KPDX 211053Z 12016KT 9SM -RA OVC050 06/03 A2971 RMK AO2 SLP060 P0002 T00610028 $

KPHL 211054Z 32006KT 10SM CLR M07/M16 A3046 RMK AO2 SLP313 T10671156 $

KPHX 211051Z 29014KT 10SM BKN100 OVC110 16/04 A3002 RMK AO2 SLP156 T01610039

KPIT 211051Z 33004KT 9SM -SN OVC030 M07/M11 A3050 RMK AO2 SLP354 P0000 T10671106

KSAN 211123Z 18005KT 4SM -RA BR FEW006 BKN012 BKN045 14/13 A3012 RMK AO2 P0001 T01390128

KSEA 211053Z 12004KT 10SM -RA OVC050 09/04 A2963 RMK AO2 RAB24 SLP040 P0001 T00890044

KSFO 211056Z 13008KT 10SM FEW025 FEW035 BKN140 12/08 A3009 RMK AO2 SLP189 T01220078

KSLC 211054Z 00000KT 9SM FEW080 SCT120 M01/M03 A3002 RMK AO2 SLP175 T10111028

KSTL 211109Z 00000KT 8SM OVC009 M07/M09 A3066 RMK AO2 T10721094 $

KTPA 211053Z 36008KT 10SM CLR 05/01 A3022 RMK AO2 SLP234 T00500006 $